createdAt,value
2023-04-18T00:01:11.674Z,13.07
2023-04-18T00:05:13.278Z,12.37
2023-04-18T00:09:14.751Z,12.00
2023-04-18T00:13:18.310Z,12.83
2023-04-18T00:17:21.106Z,12.57
2023-04-18T00:21:22.687Z,11.87
2023-04-18T00:25:24.123Z,12.57
2023-04-18T00:29:25.476Z,11.93
2023-04-18T00:33:26.886Z,11.90
2023-04-18T00:37:29.687Z,12.87
2023-04-18T00:41:31.229Z,12.43
2023-04-18T00:45:32.596Z,11.23
2023-04-18T00:49:34.000Z,12.40
2023-04-18T00:53:36.561Z,12.57
2023-04-18T00:57:38.199Z,12.63
2023-04-18T01:01:40.123Z,12.53
2023-04-18T01:05:41.645Z,12.97
2023-04-18T01:09:44.306Z,12.57
2023-04-18T01:14:05.960Z,11.73
2023-04-18T01:18:08.915Z,11.60
2023-04-18T01:22:13.197Z,11.10
2023-04-18T01:26:14.923Z,11.40
2023-04-18T01:30:16.258Z,11.63
2023-04-18T01:34:18.615Z,13.87
2023-04-18T01:38:19.981Z,12.40
2023-04-18T01:42:21.297Z,11.67
2023-04-18T01:46:22.686Z,12.20
2023-04-18T01:50:24.248Z,12.67
2023-04-18T01:54:25.680Z,11.90
2023-04-18T01:58:27.112Z,13.20
2023-04-18T02:02:28.552Z,11.37
2023-04-18T02:06:30.789Z,11.43
2023-04-18T02:10:32.157Z,11.33
2023-04-18T02:14:36.134Z,10.93
2023-04-18T02:18:40.046Z,12.07
2023-04-18T02:22:41.450Z,11.60
2023-04-18T02:26:44.076Z,13.83
2023-04-18T02:30:45.383Z,12.57
2023-04-18T02:34:46.696Z,12.67
2023-04-18T02:38:47.990Z,12.07
2023-04-18T02:42:49.314Z,12.57
2023-04-18T02:46:50.643Z,13.73
2023-04-18T02:50:52.275Z,12.40
2023-04-18T02:54:53.614Z,12.67
2023-04-18T02:58:54.876Z,13.70
2023-04-18T03:02:56.355Z,12.73
2023-04-18T03:06:59.266Z,12.60
2023-04-18T03:11:00.852Z,13.83
2023-04-18T03:15:02.204Z,13.50
2023-04-18T03:19:03.502Z,12.60
2023-04-18T03:23:05.301Z,15.10
2023-04-18T03:27:06.710Z,15.20
2023-04-18T03:31:08.180Z,13.07
2023-04-18T03:35:09.656Z,14.53
2023-04-18T03:39:10.990Z,13.07
2023-04-18T03:43:12.313Z,13.73
2023-04-18T03:47:14.656Z,12.97
2023-04-18T03:51:17.066Z,13.60
2023-04-18T03:55:19.601Z,13.37
2023-04-18T03:59:20.971Z,14.70
2023-04-18T04:03:22.374Z,14.10
2023-04-18T04:07:23.733Z,14.37
2023-04-18T04:11:25.378Z,15.90
2023-04-18T04:15:26.753Z,13.77
2023-04-18T04:19:28.065Z,15.03
2023-04-18T04:23:29.447Z,13.70
2023-04-18T04:27:30.848Z,14.00
2023-04-18T04:31:32.252Z,14.73
2023-04-18T04:35:36.538Z,14.60
2023-04-18T04:39:37.895Z,14.73
2023-04-18T04:43:41.089Z,15.70
2023-04-18T04:47:42.466Z,14.23
2023-04-18T04:51:44.276Z,15.47
2023-04-18T04:55:45.721Z,14.40
2023-04-18T04:59:47.095Z,13.97
2023-04-18T05:03:49.842Z,14.93
2023-04-18T05:07:51.325Z,14.90
2023-04-18T05:11:52.750Z,14.60
2023-04-18T05:15:54.221Z,14.23
2023-04-18T05:19:55.580Z,15.60
2023-04-18T05:23:56.948Z,15.13
2023-04-18T05:28:00.359Z,15.23
2023-04-18T05:32:03.342Z,15.77
2023-04-18T05:36:05.288Z,15.20
2023-04-18T05:40:08.150Z,14.93
2023-04-18T05:44:09.568Z,17.13
2023-04-18T05:48:11.456Z,15.23
2023-04-18T05:52:12.849Z,15.07
2023-04-18T05:56:14.343Z,18.87
2023-04-18T06:00:17.140Z,14.60
2023-04-18T06:04:20.256Z,15.10
2023-04-18T06:08:22.038Z,17.00
2023-04-18T06:12:24.244Z,14.73
2023-04-18T06:16:25.921Z,14.70
2023-04-18T06:20:27.311Z,15.53
2023-04-18T06:24:30.164Z,13.93
2023-04-18T06:28:32.855Z,13.63
2023-04-18T06:32:34.182Z,15.37
2023-04-18T06:36:35.656Z,14.47
2023-04-18T06:40:40.063Z,13.73
2023-04-18T06:44:43.153Z,13.17
2023-04-18T06:48:44.549Z,10.97
2023-04-18T06:52:45.977Z,11.97
2023-04-18T06:56:47.485Z,11.07
2023-04-18T07:00:51.863Z,10.60
2023-04-18T07:04:53.254Z,10.23
2023-04-18T07:08:59.909Z,10.40
2023-04-18T07:13:01.354Z,10.40
2023-04-18T07:17:02.854Z,10.00
2023-04-18T07:21:07.104Z,9.40
2023-04-18T07:25:08.940Z,9.17
2023-04-18T07:29:10.411Z,9.10
2023-04-18T07:33:11.794Z,8.83
2023-04-18T07:37:14.856Z,8.80
2023-04-18T07:41:16.437Z,9.40
2023-04-18T07:45:17.750Z,10.37
2023-04-18T07:49:19.218Z,9.93
2023-04-18T07:53:20.971Z,8.70
2023-04-18T07:57:22.395Z,8.03
2023-04-18T08:01:24.685Z,8.40
2023-04-18T08:05:26.208Z,8.23
2023-04-18T08:10:04.568Z,8.47
2023-04-18T08:14:04.066Z,9.23
2023-04-18T08:18:05.676Z,8.33
2023-04-18T08:22:10.623Z,8.73
2023-04-18T08:26:12.215Z,8.93
2023-04-18T08:30:14.042Z,8.30
2023-04-18T08:34:15.519Z,8.73
2023-04-18T08:38:18.424Z,8.80
2023-04-18T08:42:19.803Z,7.93
2023-04-18T08:46:21.298Z,7.77
2023-04-18T08:50:23.132Z,7.30
2023-04-18T08:54:27.251Z,7.90
2023-04-18T08:58:32.150Z,10.67
2023-04-18T09:02:44.477Z,8.50
2023-04-18T09:06:55.190Z,8.40
2023-04-18T09:11:26.600Z,9.60
2023-04-18T09:15:29.731Z,8.57
2023-04-18T09:19:33.851Z,7.77
2023-04-18T09:23:35.903Z,8.73
2023-04-18T09:27:39.825Z,7.83
2023-04-18T09:32:00.805Z,8.93
2023-04-18T09:36:21.876Z,9.30
2023-04-18T09:40:24.020Z,8.20
2023-04-18T09:44:25.542Z,8.67
2023-04-18T09:48:27.067Z,7.33
2023-04-18T09:52:33.461Z,8.40
2023-04-18T09:56:37.849Z,6.47
2023-04-18T10:00:40.120Z,7.17
2023-04-18T10:04:46.049Z,6.67
2023-04-18T10:08:50.808Z,6.67
2023-04-18T10:12:54.731Z,8.20
2023-04-18T10:16:57.471Z,7.20
2023-04-18T10:21:03.575Z,7.93
2023-04-18T10:25:06.124Z,7.63
2023-04-18T10:29:09.281Z,6.50
2023-04-18T10:33:33.806Z,5.93
2023-04-18T10:37:49.780Z,7.23
2023-04-18T10:41:51.636Z,6.57
2023-04-18T10:46:24.011Z,6.43
2023-04-18T10:50:29.657Z,6.72
2023-04-18T10:54:55.998Z,6.15
2023-04-18T10:59:02.187Z,6.60
2023-04-18T11:03:03.889Z,8.70
2023-04-18T11:07:05.549Z,7.10
2023-04-18T11:11:09.479Z,7.40
2023-04-18T11:15:22.293Z,8.30
2023-04-18T11:19:24.105Z,8.23
2023-04-18T11:23:25.603Z,7.27
2023-04-18T11:27:27.119Z,6.80
2023-04-18T11:31:28.594Z,6.53
2023-04-18T11:35:30.440Z,7.60
2023-04-18T11:39:38.170Z,7.10
2023-04-18T11:43:42.898Z,7.43
2023-04-18T11:47:46.216Z,7.00
2023-04-18T11:51:47.958Z,7.30
2023-04-18T11:55:56.009Z,7.10
2023-04-18T11:59:59.357Z,7.50
2023-04-18T12:04:05.811Z,7.67
2023-04-18T12:08:13.227Z,7.50
2023-04-18T12:12:19.182Z,7.93
2023-04-18T12:16:20.646Z,7.27
2023-04-18T12:20:24.696Z,8.03
2023-04-18T12:24:28.709Z,7.20
2023-04-18T12:28:30.923Z,8.00
2023-04-18T12:32:32.268Z,7.30
2023-04-18T12:36:33.670Z,6.18
2023-04-18T12:40:35.095Z,6.63
2023-04-18T12:44:36.468Z,6.85
2023-04-18T12:48:40.119Z,6.15
2023-04-18T12:52:42.244Z,6.70
2023-04-18T12:56:47.843Z,6.10
2023-04-18T13:00:49.327Z,6.57
2023-04-18T13:04:51.433Z,6.50
2023-04-18T13:08:52.812Z,6.47
2023-04-18T13:12:54.124Z,6.03
2023-04-18T13:16:55.587Z,6.03
2023-04-18T13:20:56.886Z,6.17
2023-04-18T13:24:58.243Z,6.60
2023-04-18T13:28:59.549Z,6.50
2023-04-18T13:33:01.102Z,7.82
2023-04-18T13:37:02.532Z,7.95
2023-04-18T13:41:12.171Z,6.43
2023-04-18T13:45:14.766Z,6.38
2023-04-18T13:49:16.191Z,7.40
2023-04-18T13:53:18.312Z,8.18
2023-04-18T13:57:19.775Z,8.93
2023-04-18T14:01:22.171Z,7.13
2023-04-18T14:05:29.284Z,7.80
2023-04-18T14:09:30.578Z,7.40
2023-04-18T14:13:32.324Z,7.60
2023-04-18T14:17:33.733Z,7.10
2023-04-18T14:21:35.807Z,7.07
2023-04-18T14:25:37.129Z,8.00
2023-04-18T14:29:38.458Z,7.40
2023-04-18T14:33:40.395Z,7.13
2023-04-18T14:37:42.149Z,7.57
2023-04-18T14:41:43.522Z,7.93
2023-04-18T14:45:44.916Z,8.68
2023-04-18T14:49:46.177Z,7.85
2023-04-18T14:53:48.730Z,8.13
2023-04-18T14:57:50.161Z,7.50
2023-04-18T15:01:51.942Z,6.88
2023-04-18T15:05:53.689Z,7.97
2023-04-18T15:09:55.049Z,7.20
2023-04-18T15:13:56.908Z,7.40
2023-04-18T15:17:58.319Z,7.23
2023-04-18T15:21:59.827Z,7.33
2023-04-18T15:26:01.229Z,7.53
2023-04-18T15:30:03.584Z,7.50
2023-04-18T15:34:04.987Z,6.47
2023-04-18T15:38:09.202Z,7.53
2023-04-18T15:42:10.591Z,7.03
2023-04-18T15:46:12.242Z,6.73
2023-04-18T15:50:15.942Z,7.80
2023-04-18T15:54:17.347Z,8.50
2023-04-18T15:58:20.484Z,7.00
2023-04-18T16:02:21.916Z,7.70
2023-04-18T16:06:23.476Z,6.87
2023-04-18T16:10:24.858Z,6.63
2023-04-18T16:14:26.170Z,6.87
2023-04-18T16:18:27.541Z,6.73
2023-04-18T16:22:28.860Z,6.87
2023-04-18T16:26:30.323Z,6.70
2023-04-18T16:30:31.732Z,6.17
2023-04-18T16:34:34.148Z,6.13
2023-04-18T16:38:35.645Z,6.23
2023-04-18T16:42:37.025Z,6.30
2023-04-18T16:46:38.474Z,6.53
2023-04-18T16:50:39.887Z,6.50
2023-04-18T16:54:41.428Z,6.40
2023-04-18T16:58:42.716Z,6.57
2023-04-18T17:02:44.250Z,6.97
2023-04-18T17:06:46.615Z,7.10
2023-04-18T17:10:51.843Z,6.47
2023-04-18T17:14:53.255Z,5.90
2023-04-18T17:18:54.564Z,6.20
2023-04-18T17:22:57.126Z,6.07
2023-04-18T17:26:58.544Z,5.70
2023-04-18T17:31:01.833Z,6.43
2023-04-18T17:35:06.092Z,6.03
2023-04-18T17:39:07.662Z,5.00
2023-04-18T17:43:09.089Z,5.20
2023-04-18T17:47:10.551Z,5.03
2023-04-18T17:51:11.953Z,6.43
2023-04-18T17:55:13.430Z,6.87
2023-04-18T17:59:14.815Z,6.03
2023-04-18T18:03:17.076Z,5.00
2023-04-18T18:07:18.657Z,6.07
2023-04-18T18:11:20.815Z,6.10
2023-04-18T18:15:23.987Z,6.43
2023-04-18T18:19:25.858Z,5.67
2023-04-18T18:23:27.364Z,5.40
2023-04-18T18:27:28.645Z,5.97
2023-04-18T18:31:30.061Z,6.73
2023-04-18T18:35:31.439Z,7.50
2023-04-18T18:39:32.804Z,8.80
2023-04-18T18:43:34.301Z,5.80
2023-04-18T18:47:36.903Z,5.60
2023-04-18T18:51:40.865Z,5.37
2023-04-18T18:55:42.588Z,6.10
2023-04-18T18:59:43.936Z,5.77
2023-04-18T19:03:45.453Z,5.63
2023-04-18T19:07:47.056Z,5.43
2023-04-18T19:11:48.383Z,6.60
2023-04-18T19:15:49.980Z,5.90
2023-04-18T19:19:52.353Z,7.20
2023-04-18T19:23:53.819Z,5.57
2023-04-18T19:27:55.279Z,5.57
2023-04-18T19:31:56.672Z,10.83
2023-04-18T19:35:58.489Z,5.70
2023-04-18T19:39:59.791Z,5.83
2023-04-18T19:44:01.214Z,7.43
2023-04-18T19:48:02.647Z,6.60
2023-04-18T19:52:04.185Z,5.50
2023-04-18T19:56:05.717Z,5.60
2023-04-18T20:00:09.056Z,5.20
2023-04-18T20:04:10.653Z,5.57
2023-04-18T20:08:12.230Z,5.80
2023-04-18T20:12:13.708Z,5.23
2023-04-18T20:16:16.718Z,5.60
2023-04-18T20:20:18.150Z,5.30
2023-04-18T20:24:21.101Z,5.50
2023-04-18T20:28:22.455Z,5.27
2023-04-18T20:32:23.774Z,5.90
2023-04-18T20:36:25.230Z,5.57
2023-04-18T20:40:28.099Z,5.73
2023-04-18T20:44:30.902Z,6.20
2023-04-18T20:48:32.213Z,6.00
2023-04-18T20:52:33.559Z,7.20
2023-04-18T20:56:36.405Z,7.80
2023-04-18T21:00:37.827Z,8.37
2023-04-18T21:04:39.247Z,8.73
2023-04-18T21:08:40.796Z,8.77
2023-04-18T21:12:42.178Z,7.70
2023-04-18T21:16:43.750Z,7.97
2023-04-18T21:20:45.148Z,7.07
2023-04-18T21:24:47.225Z,7.70
2023-04-18T21:28:53.211Z,7.33
2023-04-18T21:32:54.598Z,7.33
2023-04-18T21:36:57.642Z,6.97
2023-04-18T21:40:58.929Z,6.97
2023-04-18T21:45:00.241Z,6.50
2023-04-18T21:49:01.648Z,6.23
2023-04-18T21:53:02.931Z,6.33
2023-04-18T21:57:05.791Z,6.57
2023-04-18T22:01:07.269Z,6.73
2023-04-18T22:05:08.951Z,6.47
2023-04-18T22:09:11.669Z,6.90
2023-04-18T22:13:13.080Z,7.03
2023-04-18T22:17:14.381Z,6.70
2023-04-18T22:21:15.981Z,7.17
2023-04-18T22:25:17.626Z,7.23
2023-04-18T22:29:19.000Z,6.37
2023-04-18T22:33:20.306Z,7.07
2023-04-18T22:37:21.704Z,6.73
2023-04-18T22:41:23.095Z,7.10
2023-04-18T22:45:24.397Z,6.57
2023-04-18T22:49:26.119Z,7.03
2023-04-18T22:53:27.737Z,7.10
2023-04-18T22:57:29.111Z,6.60
2023-04-18T23:01:30.506Z,6.77
2023-04-18T23:05:32.191Z,6.90
2023-04-18T23:09:33.541Z,6.20
2023-04-18T23:13:34.895Z,6.20
2023-04-18T23:17:36.244Z,6.67
2023-04-18T23:21:37.632Z,6.70
2023-04-18T23:25:39.166Z,7.17
2023-04-18T23:29:40.611Z,6.97
2023-04-18T23:33:41.898Z,6.43
2023-04-18T23:37:43.568Z,6.57
2023-04-18T23:41:45.534Z,5.93
2023-04-18T23:45:46.850Z,7.13
2023-04-18T23:49:48.216Z,6.10
2023-04-18T23:53:49.569Z,6.73
2023-04-18T23:57:50.921Z,8.57
